Lewisville, TX

9:52 PM CDT on March 28, 2017 (GMT -0500)
Reserves at Timbercreek | | Change Station
Active Advisory: Severe Thunderstorm Watch

Elev 541 ft 33.03 °N, 97.02 °W | Updated 24 seconds ago

Overcast
Overcast
77.4 °F
Feels Like 79 °F
N
5.0
Wind Variable Wind from WNW

Today
High -- | Low -- °F
--% Chance of Precip.
Yesterday
High -- | Low -- °F
Precip. -- in
Pressure 29.66 in
Visibility 10.0 miles
Clouds Scattered Clouds 4900 ft
Mostly Cloudy 6000 ft
Overcast 8500 ft
Heat Index 79 °F
Dew Point 62 °F
Humidity 61%
Rainfall 0.00 in
Snow Depth Not available.
7:20 AM 7:45 PM
New Moon, 1% visible
METAR KDFW 290153Z 15013KT 10SM SCT049 BKN060 OVC085 27/17 A2968 RMK AO2 SLP043 T02670172
Pressure 29.66 in
Visibility 10.0 miles
Clouds Scattered Clouds 4900 ft
Mostly Cloudy 6000 ft
Overcast 8500 ft
Heat Index 79 °F
Dew Point 62 °F
Humidity 61%
Rainfall 0.00 in
Snow Depth Not available.
7:20 AM 7:45 PM
New Moon, 1% visible
METAR KDFW 290153Z 15013KT 10SM SCT049 BKN060 OVC085 27/17 A2968 RMK AO2 SLP043 T02670172

Get Your Daily Forecast Email!

Thanks for signing up!

Be on the lookout for a verification email in your inbox.

You'll start receiving severe weather alerts in your inbox..

×

10-Day Weather Forecast

Almanac

Astronomy

Mar. 28, 2017 Rise Set
Actual Time
Civil Twilight
Nautical Twilight
Astronomical Twilight
Moon
Length of Visible Light
Length of Day
Tomorrow will be .
, % of the Moon is Illuminated

Today's Extremes

State Highs State Lows

Community

WunderPhotos

Upload Photos

1,962,540 photos uploaded!

WunderBlog® & News

Nearby

Air Quality

  Air Quality AQ Index Pollutant
Not available.

Snow Depth

Station Depth Elevation

Earthquake Activity

City Distance Mag. Time & Date
Minimum magnitude displayed is 2.5.

Earthquake Activity

City Distance Mag. Time & Date
Minimum magnitude displayed is 2.5.

Coastal Water Temperatures

Place Temperature

Stations

Nearby Weather Stations

Station Location Temp. Windchill Dew Point Humidity Wind Precip. Elev Updated Type
                   

Watches & Warnings

Severe Thunderstorm Watch
Issued: 9:43 PM CDT Mar. 28, 2017 – National Weather Service

Severe Thunderstorm Watch 96 remains in effect until 400 am CDT
for the following locations


TX
. Texas counties included are

Atascosa Bandera Bell
Bexar blanco Bosque
Brown Burnet Callahan
Coke Coleman Collin
Comal Comanche Concho
Cooke Coryell Crockett
Dallas Denton Dimmit
Eastland Edwards Ellis
Erath Fisher frio
Gillespie Grayson Guadalupe
Hamilton Haskell Hays
Hill Hood Jack
Johnson Jones Kendall
Kerr Kimble Kinney
Lampasas Llano McCulloch
McLennan Mason Maverick
Medina Menard Mills
Montague Nolan Palo Pinto
Parker real Runnels
San Saba Schleicher Shackelford
Somervell Stephens Sutton
Tarrant Taylor Throckmorton
Tom Green Travis Uvalde
Val Verde Williamson Wilson
wise Young Zavala